LJPZ/POW METAR and TAF weather

Enter ICAO airport designator
Station Type Date Time Source
LJPZ METAR 2024/04/15 09:30 UTC NOAA

LJPZ 150930Z 18011KT CAVOK 23/10 Q1014


Station Type Date Time Source
LJPZ Decoded METAR 2024/04/15 09:30 UTC NOAA

Portoroz, Slovenia (LJPZ) 45-31N 013-34E
Apr 15, 2024 - 05:30 AM EDT / 2024.04.15 0930 UTC
Wind: from the S (180 degrees) at 13 MPH (11 KT):0
Visibility: greater than 7 mile(s):0
Temperature: 73 F (23 C)
Dew Point: 50 F (10 C)
Relative Humidity: 43%
Pressure (altimeter): 29.94 in. Hg (1014 hPa)
ob: LJPZ 150930Z 18011KT CAVOK 23/10 Q1014
cycle: 9

Station Type Date Time Source
LJPZ TAF 2020/09/27 12:21 UTC NOAA